createdAt,value
2023-05-01T00:03:40.496Z,91
2023-05-01T00:23:45.110Z,90
2023-05-01T00:33:47.606Z,92
2023-05-01T00:43:49.447Z,90
2023-05-01T00:53:51.724Z,90
2023-05-01T01:13:55.921Z,90
2023-05-01T01:23:58.281Z,93
2023-05-01T01:34:00.055Z,97
2023-05-01T01:44:01.960Z,98
2023-05-01T01:54:04.540Z,95
2023-05-01T02:04:06.368Z,93
2023-05-01T02:14:09.008Z,93
2023-05-01T02:24:11.217Z,95
2023-05-01T02:34:13.463Z,96
2023-05-01T02:44:15.927Z,96
2023-05-01T02:54:17.905Z,94
2023-05-01T03:04:20.402Z,94
2023-05-01T03:14:22.245Z,95
2023-05-01T03:24:24.741Z,95
2023-05-01T03:34:27.086Z,89
2023-05-01T03:44:29.165Z,86
2023-05-01T03:54:31.842Z,86
2023-05-01T04:04:34.137Z,86
2023-05-01T04:14:36.037Z,87
2023-05-01T04:24:38.494Z,87
2023-05-01T04:44:42.353Z,88
2023-05-01T05:04:47.190Z,90
2023-05-01T05:24:51.616Z,97
2023-05-01T05:44:56.371Z,100
2023-05-01T05:54:58.116Z,100
2023-05-01T06:04:59.842Z,100
2023-05-01T06:25:04.129Z,97
2023-05-01T06:45:07.742Z,87
2023-05-01T06:55:10.236Z,86
2023-05-01T07:05:12.862Z,84
2023-05-01T07:15:15.281Z,83
2023-05-01T07:25:17.409Z,82
2023-05-01T07:35:19.415Z,81
2023-05-01T07:45:21.291Z,79
2023-05-01T07:55:23.599Z,80
2023-05-01T08:05:25.450Z,78
2023-05-01T08:15:27.934Z,76
2023-05-01T08:25:30.044Z,75
2023-05-01T08:35:32.038Z,70
2023-05-01T08:55:35.926Z,68
2023-05-01T09:25:42.159Z,62
2023-05-01T09:35:44.048Z,61
2023-05-01T09:45:46.669Z,57
2023-05-01T09:55:49.263Z,55
2023-05-01T10:05:51.292Z,55
2023-05-01T10:15:53.104Z,56
2023-05-01T10:25:55.343Z,52
2023-05-01T10:35:57.773Z,51
2023-05-01T10:46:00.073Z,49
2023-05-01T10:56:02.289Z,49
2023-05-01T11:06:04.241Z,47
2023-05-01T11:16:05.953Z,47
2023-05-01T11:26:08.017Z,47
2023-05-01T11:36:09.917Z,48
2023-05-01T11:46:12.145Z,49
2023-05-01T12:06:16.527Z,47
2023-05-01T12:16:18.929Z,46
2023-05-01T12:26:20.821Z,45
2023-05-01T12:36:22.682Z,46
2023-05-01T12:46:25.213Z,44
2023-05-01T12:56:26.936Z,43
2023-05-01T13:06:29.378Z,42
2023-05-01T13:16:31.356Z,43
2023-05-01T13:26:33.350Z,42
2023-05-01T13:36:35.310Z,43
2023-05-01T13:46:37.800Z,43
2023-05-01T13:56:40.199Z,46
2023-05-01T14:06:42.393Z,46
2023-05-01T14:16:45.053Z,47
2023-05-01T14:26:47.164Z,48
2023-05-01T14:36:49.603Z,48
2023-05-01T14:46:52.153Z,49
2023-05-01T14:56:54.321Z,49
2023-05-01T15:06:56.127Z,48
2023-05-01T15:16:58.133Z,49
2023-05-01T15:37:02.631Z,97
2023-05-01T15:47:04.701Z,100
2023-05-01T15:57:06.417Z,100
2023-05-01T16:07:08.725Z,97
2023-05-01T16:17:10.603Z,98
2023-05-01T16:27:12.337Z,97
2023-05-01T16:37:14.213Z,100
2023-05-01T16:47:16.173Z,100
2023-05-01T17:07:20.999Z,100
2023-05-01T17:17:23.284Z,100
2023-05-01T18:17:35.491Z,100
2023-05-01T18:27:37.502Z,100
2023-05-01T19:27:50.529Z,100
2023-05-01T20:18:00.812Z,100
2023-05-01T21:08:11.655Z,99
2023-05-01T21:18:13.801Z,98
2023-05-01T21:28:16.249Z,98
2023-05-01T21:38:28.535Z,99
2023-05-01T21:48:31.134Z,100
2023-05-01T21:58:33.248Z,100
2023-05-01T22:08:35.860Z,100
2023-05-01T22:18:37.619Z,100
2023-05-01T22:28:39.429Z,100
2023-05-01T22:38:41.258Z,100
2023-05-01T22:48:43.788Z,100
2023-05-01T23:08:47.770Z,100
2023-05-01T23:18:49.947Z,100
2023-05-01T23:28:52.572Z,100
2023-05-01T23:38:54.369Z,100
2023-05-01T23:48:56.405Z,100
2023-05-01T23:58:58.895Z,100
